Time,TemperatureF,DewpointF,PressureIn,WindDirection,WindDirectionDegrees,WindSpeedMPH,WindSpeedGustMPH,Humidity,HourlyPrecipIn,Conditions,Clouds,dailyrainin,SoftwareType,DateUTC
2013-03-02 00:13:00,35.6,23.1,29.69,NW,315,0.0,-999.0,60,-99.99,,,0.00,Acu-Link.com,2013-03-02 05:13:00,
2013-03-02 00:28:00,35.4,22.9,29.69,WNW,292,2.7,-999.0,60,-99.99,,,0.00,Acu-Link.com,2013-03-02 05:28:00,
2013-03-02 00:44:00,35.4,22.9,29.70,West,270,4.2,-999.0,60,-99.99,,,0.00,Acu-Link.com,2013-03-02 05:44:00,
2013-03-02 00:59:00,35.4,22.9,29.70,West,270,2.2,-999.0,60,-99.99,,,0.00,Acu-Link.com,2013-03-02 05:59:00,
2013-03-02 01:14:00,35.4,22.1,29.71,SSW,202,1.7,-999.0,58,-99.99,,,0.00,Acu-Link.com,2013-03-02 06:14:00,
2013-03-02 01:29:00,35.2,21.9,29.69,WSW,247,3.2,-999.0,58,-99.99,,,0.00,Acu-Link.com,2013-03-02 06:29:00,
2013-03-02 01:44:00,35.1,21.4,29.68,SSW,202,0.0,-999.0,57,-99.99,,,0.00,Acu-Link.com,2013-03-02 06:44:00,
2013-03-02 01:59:00,35.1,21.0,29.69,West,270,3.7,-999.0,56,-99.99,,,0.00,Acu-Link.com,2013-03-02 06:59:00,
2013-03-02 02:14:00,34.9,21.2,29.69,NNE,22,2.7,-999.0,57,-99.99,,,0.00,Acu-Link.com,2013-03-02 07:14:00,
2013-03-02 02:29:00,34.7,21.0,29.69,NW,315,3.7,-999.0,57,-99.99,,,0.00,Acu-Link.com,2013-03-02 07:29:00,
2013-03-02 02:44:00,34.3,20.7,29.70,SW,225,2.2,-999.0,57,-99.99,,,0.00,Acu-Link.com,2013-03-02 07:44:00,
2013-03-02 03:00:00,34.3,21.1,29.70,NW,315,2.2,-999.0,58,-99.99,,,0.00,Acu-Link.com,2013-03-02 08:00:00,
2013-03-02 03:15:00,34.2,21.0,29.69,East,90,7.3,-999.0,58,-99.99,,,0.00,Acu-Link.com,2013-03-02 08:15:00,
2013-03-02 03:30:00,34.0,20.8,29.68,WSW,247,1.7,-999.0,58,-99.99,,,0.00,Acu-Link.com,2013-03-02 08:30:00,
2013-03-02 03:45:00,34.0,20.8,29.68,NW,315,2.7,-999.0,58,-99.99,,,0.00,Acu-Link.com,2013-03-02 08:45:00,
2013-03-02 04:00:00,33.6,20.8,29.69,West,270,2.7,-999.0,59,-99.99,,,0.00,Acu-Link.com,2013-03-02 09:00:00,
2013-03-02 04:19:00,33.6,20.8,29.69,West,270,2.7,-999.0,59,-99.99,,,0.00,Acu-Link.com,2013-03-02 09:19:00,
2013-03-02 04:34:00,33.4,21.4,29.68,SSW,202,0.0,-999.0,61,-99.99,,,0.00,Acu-Link.com,2013-03-02 09:34:00,
2013-03-02 04:49:00,33.3,21.3,29.67,East,90,2.2,-999.0,61,-99.99,,,0.00,Acu-Link.com,2013-03-02 09:49:00,
2013-03-02 05:04:00,33.3,21.3,29.67,West,270,0.0,-999.0,61,-99.99,,,0.00,Acu-Link.com,2013-03-02 10:04:00,
2013-03-02 05:19:00,33.3,20.9,29.65,WNW,292,0.0,-999.0,60,-99.99,,,0.00,Acu-Link.com,2013-03-02 10:19:00,
2013-03-02 05:34:00,33.3,21.7,29.65,NE,45,1.7,-999.0,62,-99.99,,,0.00,Acu-Link.com,2013-03-02 10:34:00,
2013-03-02 05:49:00,33.4,20.6,29.66,West,270,1.1,-999.0,59,-99.99,,,0.00,Acu-Link.com,2013-03-02 10:49:00,
2013-03-02 06:04:00,33.1,20.4,29.67,West,270,0.0,-999.0,59,-99.99,,,0.00,Acu-Link.com,2013-03-02 11:04:00,
2013-03-02 06:19:00,32.9,20.2,29.67,West,270,5.3,-999.0,59,-99.99,,,0.00,Acu-Link.com,2013-03-02 11:19:00,
2013-03-02 06:34:00,32.7,20.0,29.68,NNW,337,2.7,-999.0,59,-99.99,,,0.00,Acu-Link.com,2013-03-02 11:34:00,
2013-03-02 06:50:00,32.5,20.2,29.68,SSW,202,0.0,-999.0,60,-99.99,,,0.00,Acu-Link.com,2013-03-02 11:50:00,
2013-03-02 07:05:00,32.5,20.2,29.67,West,270,2.7,-999.0,60,-99.99,,,0.00,Acu-Link.com,2013-03-02 12:05:00,
2013-03-02 07:20:00,32.5,20.2,29.67,SW,225,2.2,-999.0,60,-99.99,,,0.00,Acu-Link.com,2013-03-02 12:20:00,
2013-03-02 07:35:00,32.7,20.4,29.68,East,90,1.7,-999.0,60,-99.99,,,0.00,Acu-Link.com,2013-03-02 12:35:00,
2013-03-02 07:50:00,32.7,20.0,29.69,West,270,4.2,-999.0,59,-99.99,,,0.00,Acu-Link.com,2013-03-02 12:50:00,
2013-03-02 08:05:00,33.1,20.4,29.69,NW,315,2.7,-999.0,59,-99.99,,,0.00,Acu-Link.com,2013-03-02 13:05:00,
2013-03-02 08:20:00,33.1,20.7,29.71,NW,315,1.7,-999.0,60,-99.99,,,0.00,Acu-Link.com,2013-03-02 13:20:00,
2013-03-02 08:35:00,33.3,20.5,29.71,West,270,2.2,-999.0,59,-99.99,,,0.00,Acu-Link.com,2013-03-02 13:35:00,
2013-03-02 08:50:00,33.6,21.2,29.69,NE,45,0.0,-999.0,60,-99.99,,,0.00,Acu-Link.com,2013-03-02 13:50:00,
2013-03-02 09:06:00,33.8,20.6,29.68,NE,45,0.0,-999.0,58,-99.99,,,0.00,Acu-Link.com,2013-03-02 14:06:00,
2013-03-02 09:21:00,34.0,21.2,29.69,West,270,1.1,-999.0,59,-99.99,,,0.00,Acu-Link.com,2013-03-02 14:21:00,
2013-03-02 09:36:00,34.5,21.7,29.69,SSW,202,3.2,-999.0,59,-99.99,,,0.00,Acu-Link.com,2013-03-02 14:36:00,
2013-03-02 09:51:00,34.5,21.3,29.70,SW,225,2.2,-999.0,58,-99.99,,,0.00,Acu-Link.com,2013-03-02 14:51:00,
2013-03-02 10:06:00,35.6,21.9,29.69,SSW,202,2.7,-999.0,57,-99.99,,,0.00,Acu-Link.com,2013-03-02 15:06:00,
2013-03-02 10:21:00,36.0,22.7,29.70,West,270,4.2,-999.0,58,-99.99,,,0.00,Acu-Link.com,2013-03-02 15:21:00,
2013-03-02 10:36:00,36.1,22.4,29.70,South,180,1.7,-999.0,57,-99.99,,,0.00,Acu-Link.com,2013-03-02 15:36:00,
2013-03-02 10:51:00,35.4,21.3,29.69,NE,45,0.0,-999.0,56,-99.99,,,0.00,Acu-Link.com,2013-03-02 15:51:00,
2013-03-02 11:06:00,35.1,21.4,29.68,West,270,2.2,-999.0,57,-99.99,,,0.00,Acu-Link.com,2013-03-02 16:06:00,
2013-03-02 11:22:00,35.6,21.5,29.67,NW,315,5.8,-999.0,56,-99.99,,,0.00,Acu-Link.com,2013-03-02 16:22:00,
2013-03-02 11:37:00,36.0,22.7,29.68,WSW,247,3.7,-999.0,58,-99.99,,,0.00,Acu-Link.com,2013-03-02 16:37:00,
2013-03-02 11:52:00,35.2,21.1,29.68,NNW,337,3.7,-999.0,56,-99.99,,,0.00,Acu-Link.com,2013-03-02 16:52:00,
2013-03-02 12:07:00,35.1,20.6,29.68,NNE,22,6.8,-999.0,55,-99.99,,,0.00,Acu-Link.com,2013-03-02 17:07:00,
2013-03-02 12:22:00,35.4,20.9,29.68,WNW,292,4.7,-999.0,55,-99.99,,,0.00,Acu-Link.com,2013-03-02 17:22:00,
2013-03-02 12:37:00,35.2,20.7,29.68,West,270,3.2,-999.0,55,-99.99,,,0.00,Acu-Link.com,2013-03-02 17:37:00,
2013-03-02 12:52:00,35.6,20.6,29.67,West,270,6.8,-999.0,54,-99.99,,,0.00,Acu-Link.com,2013-03-02 17:52:00,
2013-03-02 13:07:00,35.8,20.8,29.66,WNW,292,3.2,-999.0,54,-99.99,,,0.00,Acu-Link.com,2013-03-02 18:07:00,
2013-03-02 13:22:00,35.6,20.6,29.65,West,270,5.8,-999.0,54,-99.99,,,0.00,Acu-Link.com,2013-03-02 18:22:00,
2013-03-02 13:38:00,35.1,20.2,29.65,West,270,6.3,-999.0,54,-99.99,,,0.00,Acu-Link.com,2013-03-02 18:38:00,
2013-03-02 13:53:00,34.7,19.8,29.65,WNW,292,7.8,-999.0,54,-99.99,,,0.00,Acu-Link.com,2013-03-02 18:53:00,
2013-03-02 14:08:00,35.4,20.0,29.66,WSW,247,7.8,-999.0,53,-99.99,,,0.00,Acu-Link.com,2013-03-02 19:08:00,
2013-03-02 14:23:00,35.6,20.2,29.66,West,270,6.8,-999.0,53,-99.99,,,0.00,Acu-Link.com,2013-03-02 19:23:00,
2013-03-02 14:38:00,35.1,19.3,29.66,West,270,7.8,-999.0,52,-99.99,,,0.00,Acu-Link.com,2013-03-02 19:38:00,
2013-03-02 14:53:00,34.9,19.5,29.66,NW,315,4.7,-999.0,53,-99.99,,,0.00,Acu-Link.com,2013-03-02 19:53:00,
2013-03-02 15:08:00,35.8,20.8,29.66,WNW,292,3.2,-999.0,54,-99.99,,,0.00,Acu-Link.com,2013-03-02 20:08:00,
2013-03-02 15:23:00,35.1,20.2,29.67,South,180,0.0,-999.0,54,-99.99,,,0.00,Acu-Link.com,2013-03-02 20:23:00,
2013-03-02 15:38:00,34.7,19.3,29.65,West,270,5.8,-999.0,53,-99.99,,,0.00,Acu-Link.com,2013-03-02 20:38:00,
2013-03-02 15:54:00,35.1,20.2,29.64,NW,315,4.7,-999.0,54,-99.99,,,0.00,Acu-Link.com,2013-03-02 20:54:00,
2013-03-02 16:09:00,34.3,19.0,29.65,WSW,247,11.9,-999.0,53,-99.99,,,0.00,Acu-Link.com,2013-03-02 21:09:00,
2013-03-02 16:24:00,33.8,18.5,29.66,SSW,202,7.3,-999.0,53,-99.99,,,0.00,Acu-Link.com,2013-03-02 21:24:00,
2013-03-02 16:39:00,33.6,18.3,29.66,WSW,247,4.2,-999.0,53,-99.99,,,0.00,Acu-Link.com,2013-03-02 21:39:00,
2013-03-02 16:54:00,33.4,18.6,29.68,West,270,5.3,-999.0,54,-99.99,,,0.00,Acu-Link.com,2013-03-02 21:54:00,
2013-03-02 17:09:00,33.3,18.0,29.68,NNE,22,7.3,-999.0,53,-99.99,,,0.00,Acu-Link.com,2013-03-02 22:09:00,
2013-03-02 17:24:00,32.9,18.1,29.68,West,270,3.2,-999.0,54,-99.99,,,0.00,Acu-Link.com,2013-03-02 22:24:00,
2013-03-02 17:39:00,32.5,17.7,29.68,WSW,247,7.3,-999.0,54,-99.99,,,0.00,Acu-Link.com,2013-03-02 22:39:00,
2013-03-02 17:54:00,32.2,18.3,29.67,ENE,67,2.2,-999.0,56,-99.99,,,0.00,Acu-Link.com,2013-03-02 22:54:00,
2013-03-02 18:10:00,31.8,17.9,29.68,ESE,112,5.8,-999.0,56,-99.99,,,0.00,Acu-Link.com,2013-03-02 23:10:00,
2013-03-02 18:25:00,31.6,18.1,29.69,West,270,3.7,-999.0,57,-99.99,,,0.00,Acu-Link.com,2013-03-02 23:25:00,
2013-03-02 18:40:00,31.5,17.6,29.70,WNW,292,4.2,-999.0,56,-99.99,,,0.00,Acu-Link.com,2013-03-02 23:40:00,
2013-03-02 18:55:00,31.5,17.6,29.70,NNW,337,6.8,-999.0,56,-99.99,,,0.00,Acu-Link.com,2013-03-02 23:55:00,
2013-03-02 19:10:00,31.5,17.6,29.71,West,270,2.2,-999.0,56,-99.99,,,0.00,Acu-Link.com,2013-03-03 00:10:00,
2013-03-02 19:25:00,31.3,17.0,29.71,NNW,337,1.1,-999.0,55,-99.99,,,0.00,Acu-Link.com,2013-03-03 00:25:00,
2013-03-02 19:40:00,31.1,16.8,29.72,West,270,3.7,-999.0,55,-99.99,,,0.00,Acu-Link.com,2013-03-03 00:40:00,
2013-03-02 19:55:00,31.3,17.0,29.72,WSW,247,4.2,-999.0,55,-99.99,,,0.00,Acu-Link.com,2013-03-03 00:55:00,
2013-03-02 20:10:00,31.3,17.0,29.71,West,270,6.3,-999.0,55,-99.99,,,0.00,Acu-Link.com,2013-03-03 01:10:00,
2013-03-02 20:26:00,31.3,17.9,29.70,SW,225,3.7,-999.0,57,-99.99,,,0.00,Acu-Link.com,2013-03-03 01:26:00,
2013-03-02 20:41:00,31.1,18.1,29.70,WNW,292,4.2,-999.0,58,-99.99,,,0.00,Acu-Link.com,2013-03-03 01:41:00,
2013-03-02 20:56:00,31.1,18.5,29.71,NW,315,4.2,-999.0,59,-99.99,,,0.00,Acu-Link.com,2013-03-03 01:56:00,
2013-03-02 21:11:00,31.1,18.5,29.73,West,270,7.3,-999.0,59,-99.99,,,0.00,Acu-Link.com,2013-03-03 02:11:00,
2013-03-02 21:26:00,30.9,18.7,29.73,SW,225,2.7,-999.0,60,-99.99,,,0.00,Acu-Link.com,2013-03-03 02:26:00,
2013-03-02 21:41:00,30.7,19.2,29.73,SW,225,3.7,-999.0,62,-99.99,,,0.00,Acu-Link.com,2013-03-03 02:41:00,
2013-03-02 21:56:00,30.6,18.8,29.73,West,270,3.2,-999.0,61,-99.99,,,0.00,Acu-Link.com,2013-03-03 02:56:00,
2013-03-02 22:11:00,30.7,18.5,29.72,SSW,202,2.7,-999.0,60,-99.99,,,0.00,Acu-Link.com,2013-03-03 03:11:00,
2013-03-02 22:26:00,30.9,17.1,29.71,West,270,4.7,-999.0,56,-99.99,,,0.00,Acu-Link.com,2013-03-03 03:26:00,
2013-03-02 22:42:00,30.7,16.9,29.71,West,270,4.7,-999.0,56,-99.99,,,0.00,Acu-Link.com,2013-03-03 03:42:00,
2013-03-02 22:57:00,30.6,16.8,29.71,SE,135,8.9,-999.0,56,-99.99,,,0.00,Acu-Link.com,2013-03-03 03:57:00,
2013-03-02 23:12:00,30.6,16.8,29.72,NW,315,4.2,-999.0,56,-99.99,,,0.00,Acu-Link.com,2013-03-03 04:12:00,
2013-03-02 23:27:00,30.6,16.8,29.71,West,270,6.8,-999.0,56,-99.99,,,0.00,Acu-Link.com,2013-03-03 04:27:00,
2013-03-02 23:42:00,30.4,17.0,29.72,SSE,157,4.2,-999.0,57,-99.99,,,0.00,Acu-Link.com,2013-03-03 04:42:00,
2013-03-02 23:57:00,30.4,17.4,29.71,West,270,8.9,-999.0,58,-99.99,,,0.00,Acu-Link.com,2013-03-03 04:57:00,